Time;durP1;ratioP1;P1;durP2;ratioP2;P2;SDS_P1;SDS_P2;PMS_P1;PMS_P2;Temp;Humidity;BMP_temperature;BMP_pressure;BME280_temperature;BME280_humidity;BME280_pressure;Samples;Min_cycle;Max_cycle;Signal;HPM_P1;HPM_P2
2022/05/17 00:00:11;;;;;;;75.60;69.23;;;;;;;14.77;100.00;101883.47;2008207;71;33277;-79
2022/05/17 00:05:56;;;;;;;76.47;70.23;;;;;;;14.59;100.00;101882.16;1996971;71;32759;-78
2022/05/17 00:11:40;;;;;;;75.83;69.07;;;;;;;14.65;100.00;101894.16;2007848;71;33305;-79
2022/05/17 00:17:24;;;;;;;75.03;68.27;;;;;;;14.62;100.00;101884.96;2008238;71;33313;-71
2022/05/17 00:23:10;;;;;;;79.80;73.63;;;;;;;14.49;100.00;101890.61;1997011;71;32807;-71
2022/05/17 00:28:55;;;;;;;82.03;75.23;;;;;;;14.46;100.00;101888.40;1999276;71;32855;-72
2022/05/17 00:34:46;;;;;;;78.03;70.93;;;;;;;14.45;100.00;101889.52;1997199;71;33217;-71
2022/05/17 00:40:31;;;;;;;78.37;71.60;;;;;;;14.39;100.00;101892.04;2018475;71;33663;-71
2022/05/17 00:46:20;;;;;;;77.33;70.27;;;;;;;14.41;100.00;101889.25;2013902;70;33366;-86
2022/05/17 00:52:08;;;;;;;77.40;70.77;;;;;;;14.40;100.00;101887.57;1991595;71;33363;-72
2022/05/17 00:57:56;;;;;;;76.33;69.63;;;;;;;14.39;100.00;101892.04;1991557;71;32803;-71
2022/05/17 01:03:46;;;;;;;77.07;70.10;;;;;;;14.43;100.00;101892.58;1999594;71;33264;-75
2022/05/17 01:09:32;;;;;;;81.80;74.63;;;;;;;14.31;100.00;101887.01;2009836;71;32889;-71
2022/05/17 01:15:16;;;;;;;78.60;72.07;;;;;;;14.31;100.00;101886.45;2009419;71;33292;-71
2022/05/17 01:21:01;;;;;;;69.97;63.63;;;;;;;14.14;100.00;101879.80;2016639;71;32934;-71
2022/05/17 01:26:47;;;;;;;69.17;62.63;;;;;;;14.22;100.00;101882.56;2005062;71;32782;-77
2022/05/17 01:32:31;;;;;;;72.73;66.10;;;;;;;14.17;100.00;101877.55;2004331;71;32767;-71
2022/05/17 01:38:16;;;;;;;70.57;64.43;;;;;;;14.11;100.00;101878.14;2006386;71;33301;-78
2022/05/17 01:44:00;;;;;;;68.93;62.87;;;;;;;13.92;100.00;101871.47;2006422;71;32796;-78
2022/05/17 01:56:22;;;;;;;69.93;63.13;;;;;;;14.06;100.00;101866.42;1989393;71;33354;-78
2022/05/17 02:02:06;;;;;;;74.50;67.53;;;;;;;14.01;100.00;101869.78;1996995;71;32750;-78
2022/05/17 02:07:51;;;;;;;73.47;67.27;;;;;;;13.97;100.00;101868.67;2014947;70;32838;-77
2022/05/17 02:13:38;;;;;;;71.90;65.00;;;;;;;13.98;100.00;101861.97;1995459;71;32778;-71
2022/05/17 02:19:23;;;;;;;69.53;63.43;;;;;;;13.84;100.00;101859.48;2014920;71;32837;-71
2022/05/17 02:25:10;;;;;;;73.07;66.70;;;;;;;13.67;100.00;101858.40;2006433;71;33243;-78
2022/05/17 02:30:55;;;;;;;72.40;66.70;;;;;;;13.74;100.00;101858.94;2011840;71;32773;-78
2022/05/17 02:36:39;;;;;;;70.83;65.37;;;;;;;13.11;100.00;101862.60;2011711;71;32764;-78
2022/05/17 02:42:23;;;;;;;69.70;63.80;;;;;;;13.11;100.00;101868.73;2004566;71;33252;-71
2022/05/17 02:48:08;;;;;;;65.50;60.50;;;;;;;12.72;100.00;101873.37;2007635;71;32869;-71
2022/05/17 02:53:52;;;;;;;64.20;58.57;;;;;;;12.83;100.00;101877.59;2011144;71;32818;-71
2022/05/17 02:59:39;;;;;;;65.47;60.13;;;;;;;12.72;100.00;101884.52;1998614;71;33292;-71
2022/05/17 03:05:26;;;;;;;65.00;59.67;;;;;;;12.84;100.00;101870.32;1991588;70;33231;-79
2022/05/17 03:11:12;;;;;;;64.93;59.53;;;;;;;12.84;100.00;101875.90;2015633;70;32957;-77
2022/05/17 03:16:59;;;;;;;62.53;56.97;;;;;;;13.02;100.00;101875.94;2000625;71;32915;-85
2022/05/17 03:22:44;;;;;;;66.83;60.87;;;;;;;12.91;100.00;101870.08;2015001;71;32881;-71
2022/05/17 03:28:29;;;;;;;61.40;56.60;;;;;;;12.67;100.00;101871.95;2003699;71;32802;-71
2022/05/17 03:34:13;;;;;;;62.80;57.90;;;;;;;12.30;100.00;101880.47;2010002;71;32742;-71
2022/05/17 03:39:57;;;;;;;62.60;57.77;;;;;;;12.26;100.00;101877.10;2009542;71;33332;-71
2022/05/17 03:45:41;;;;;;;60.37;55.57;;;;;;;12.33;100.00;101878.52;2008020;71;33290;-70
2022/05/17 03:51:26;;;;;;;60.53;55.93;;;;;;;12.32;100.00;101877.42;2011515;71;33307;-78
2022/05/17 03:57:10;;;;;;;64.37;59.37;;;;;;;12.25;100.00;101876.81;1975649;72;33316;-71
2022/05/17 04:02:54;;;;;;;60.33;55.57;;;;;;;12.21;100.00;101876.52;1944058;74;33021;-83
2022/05/17 04:08:40;;;;;;;61.20;56.17;;;;;;;12.27;100.00;101881.02;2000792;71;32815;-71
2022/05/17 04:14:24;;;;;;;60.03;54.97;;;;;;;12.28;100.00;101875.70;2013421;71;32883;-75
2022/05/17 04:20:13;;;;;;;63.23;57.80;;;;;;;12.47;100.00;101875.23;2015376;71;32952;-79
2022/05/17 04:26:02;;;;;;;65.70;60.10;;;;;;;12.41;100.00;101868.80;1999420;70;32766;-76
2022/05/17 04:31:46;;;;;;;64.33;58.87;;;;;;;12.47;100.00;101874.69;2016797;71;32800;-71
2022/05/17 04:37:32;;;;;;;66.53;60.73;;;;;;;12.49;100.00;101875.27;2013102;71;32848;-71
2022/05/17 04:43:15;;;;;;;65.03;59.87;;;;;;;12.33;100.00;101890.22;2011702;71;32796;-71
2022/05/17 04:48:59;;;;;;;64.30;58.77;;;;;;;12.47;100.00;101880.26;2011461;71;32801;-78
2022/05/17 04:54:45;;;;;;;63.47;57.87;;;;;;;12.77;100.00;101881.75;2016806;71;33011;-72
2022/05/17 05:00:29;;;;;;;63.37;57.57;;;;;;;12.92;100.00;101884.30;2015026;71;33323;-79
2022/05/17 05:06:13;;;;;;;65.50;59.70;;;;;;;13.02;100.00;101892.12;2012899;71;32864;-78
2022/05/17 05:11:58;;;;;;;61.80;56.43;;;;;;;13.05;100.00;101884.59;2011151;71;32802;-71
2022/05/17 05:17:43;;;;;;;65.87;59.93;;;;;;;13.04;100.00;101885.72;2016728;71;32877;-70
2022/05/17 05:23:30;;;;;;;60.90;55.20;;;;;;;13.20;100.00;101886.60;2009459;71;33291;-70
2022/05/17 05:29:16;;;;;;;64.30;58.80;;;;;;;13.26;100.00;101895.27;2006554;71;32891;-70
2022/05/17 05:35:00;;;;;;;63.67;58.17;;;;;;;13.37;100.00;101897.49;1997080;71;32731;-77
2022/05/17 05:40:44;;;;;;;65.47;59.93;;;;;;;13.48;100.00;101900.55;2012212;70;32793;-92
2022/05/17 05:46:29;;;;;;;60.00;54.50;;;;;;;13.61;100.00;101906.97;1994971;70;32877;-79
2022/05/17 05:52:13;;;;;;;63.33;57.37;;;;;;;13.72;100.00;101909.22;2009461;71;32837;-79
2022/05/17 05:58:01;;;;;;;61.33;55.80;;;;;;;13.73;100.00;101907.55;2016647;71;32865;-79
2022/05/17 06:03:45;;;;;;;64.23;58.13;;;;;;;13.77;100.00;101911.45;2009835;71;32795;-81
2022/05/17 06:09:30;;;;;;;68.77;62.20;;;;;;;13.91;100.00;101914.48;2011313;70;33408;-70
2022/05/17 06:15:14;;;;;;;66.57;60.67;;;;;;;14.10;100.00;101909.98;2017337;71;32885;-76
2022/05/17 06:21:01;;;;;;;74.97;68.43;;;;;;;14.37;100.00;101916.11;2003412;71;32896;-79
2022/05/17 06:26:46;;;;;;;77.20;70.60;;;;;;;14.54;100.00;101911.56;1995517;71;32871;-68
2022/05/17 06:32:31;;;;;;;80.87;73.60;;;;;;;14.68;100.00;101920.98;2004472;71;32820;-69
2022/05/17 06:38:16;;;;;;;81.43;74.63;;;;;;;14.96;100.00;101919.46;1991570;71;33382;-70
2022/05/17 06:44:03;;;;;;;83.77;76.97;;;;;;;15.18;100.00;101927.44;2002710;71;32860;-70
2022/05/17 06:49:48;;;;;;;82.10;75.10;;;;;;;15.25;100.00;101929.34;2013567;71;32801;-69
2022/05/17 06:55:32;;;;;;;83.70;76.97;;;;;;;15.39;100.00;101927.58;2014908;71;32963;-69
2022/05/17 07:01:16;;;;;;;81.03;74.57;;;;;;;15.69;100.00;101929.33;2006345;71;32771;-70
2022/05/17 07:07:01;;;;;;;78.30;72.17;;;;;;;15.62;100.00;101927.41;2004855;71;32780;-82
2022/05/17 07:18:47;;;;;;;82.60;76.17;;;;;;;15.87;100.00;101924.41;2011132;71;32856;-76
2022/05/17 07:24:33;;;;;;;87.30;80.73;;;;;;;16.01;100.00;101923.12;2009545;71;32856;-73
2022/05/17 07:30:18;;;;;;;84.17;77.77;;;;;;;16.20;100.00;101924.06;2017040;71;30887;-68
2022/05/17 07:36:03;;;;;;;82.77;76.37;;;;;;;16.38;100.00;101915.73;2015031;71;32836;-79
2022/05/17 07:41:48;;;;;;;83.53;77.20;;;;;;;16.34;100.00;101917.43;2014781;71;32868;-70
2022/05/17 07:47:33;;;;;;;82.83;76.53;;;;;;;16.65;100.00;101918.49;2011290;71;31358;-68
2022/05/17 07:53:19;;;;;;;84.50;78.50;;;;;;;16.97;100.00;101911.62;2009249;71;30944;-79
2022/05/17 07:59:06;;;;;;;74.17;68.53;;;;;;;16.94;100.00;101926.27;1999236;71;30863;-92
2022/05/17 08:04:51;;;;;;;76.60;70.80;;;;;;;17.33;100.00;101925.14;2013371;71;31443;-69
2022/05/17 08:10:35;;;;;;;74.67;68.70;;;;;;;17.88;100.00;101917.77;2018625;71;33328;-70
2022/05/17 08:16:20;;;;;;;74.00;68.60;;;;;;;18.27;100.00;101914.52;2016613;71;31392;-70
2022/05/17 08:22:04;;;;;;;70.33;65.07;;;;;;;18.68;100.00;101920.16;2007601;70;31393;-68
2022/05/17 08:27:48;;;;;;;67.23;62.53;;;;;;;18.95;100.00;101922.95;2013184;71;31026;-68
2022/05/17 08:33:36;;;;;;;62.83;58.07;;;;;;;19.50;100.00;101901.95;1991716;71;30845;-67
2022/05/17 08:39:25;;;;;;;64.17;59.77;;;;;;;19.76;100.00;101891.43;2009970;71;30915;-79
2022/05/17 08:45:13;;;;;;;66.53;62.03;;;;;;;19.73;100.00;101885.00;2014984;71;30961;-77
2022/05/17 08:47:46;;;;;;;64.20;59.73;;;;;;;20.03;100.00;101884.19;1976201;72;24156;-82
2022/05/17 08:53:34;;;;;;;63.53;59.27;;;;;;;20.24;100.00;101874.57;1993866;71;31050;-69
2022/05/17 08:59:23;;;;;;;64.53;60.10;;;;;;;20.64;100.00;101864.12;2006424;70;30889;-79
2022/05/17 09:05:17;;;;;;;62.93;58.93;;;;;;;20.94;100.00;101870.81;1991500;71;30969;-69
2022/05/17 09:11:08;;;;;;;59.43;55.90;;;;;;;21.13;100.00;101856.67;2014784;71;30867;-69
2022/05/17 09:13:43;;;;;;;62.27;58.70;;;;;;;21.36;100.00;101861.55;1985761;72;24166;-79
2022/05/17 09:19:28;;;;;;;54.17;51.37;;;;;;;21.35;100.00;101850.81;2014831;71;30900;-80
2022/05/17 09:25:20;;;;;;;56.13;52.87;;;;;;;21.61;100.00;101842.88;2015473;71;31388;-87
2022/05/17 09:31:11;;;;;;;49.10;46.50;;;;;;;21.67;100.00;101848.62;1999091;71;30819;-79
2022/05/17 09:37:00;;;;;;;40.43;38.10;;;;;;;21.68;100.00;101831.33;2009417;71;30915;-79
2022/05/17 09:42:54;;;;;;;41.23;39.15;;;;;;;21.93;100.00;101841.51;2011801;71;31010;-80
2022/05/17 09:55:21;;;;;;;37.60;35.58;;;;;;;21.94;100.00;101829.03;1996915;71;30902;-70
2022/05/17 10:01:16;;;;;;;30.08;28.42;;;;;;;22.43;100.00;101817.55;2013297;71;31465;-79
2022/05/17 10:07:19;;;;;;;31.82;30.05;;;;;;;22.09;100.00;101826.46;2016736;71;30958;-81
2022/05/17 10:13:17;;;;;;;25.70;24.30;;;;;;;22.42;100.00;101811.05;2016834;71;31022;-81
2022/05/17 10:19:08;;;;;;;20.57;19.47;;;;;;;22.34;100.00;101800.60;2000588;71;31541;-67
2022/05/17 10:24:57;;;;;;;22.52;21.17;;;;;;;22.30;100.00;101793.97;2018772;71;30899;-79
2022/05/17 10:30:47;;;;;;;22.65;21.20;;;;;;;22.23;100.00;101778.95;2011430;71;30985;-69
2022/05/17 10:36:38;;;;;;;17.52;16.52;;;;;;;22.19;100.00;101784.22;1994927;71;31020;-69
2022/05/17 10:39:12;;;;;;;18.37;17.02;;;;;;;22.47;100.00;101782.54;1980200;72;24152;-69
2022/05/17 10:44:59;;;;;;;18.75;17.45;;;;;;;22.01;100.00;101778.39;2002641;71;30905;-69
2022/05/17 10:50:52;;;;;;;21.02;19.82;;;;;;;21.70;100.00;101780.90;2015184;71;30896;-80
2022/05/17 10:56:50;;;;;;;19.67;18.65;;;;;;;21.42;100.00;101768.35;2010224;71;30901;-68
2022/05/17 10:59:26;;;;;;;20.27;19.07;;;;;;;21.55;100.00;101770.14;1967613;72;24647;-68
2022/05/17 11:05:20;;;;;;;15.50;14.50;;;;;;;21.43;100.00;101763.53;2003956;71;30898;-69
2022/05/17 11:11:24;;;;;;;18.30;16.90;;;;;;;21.88;100.00;101756.20;2014934;71;30964;-79
2022/05/17 11:17:20;;;;;;;15.48;14.58;;;;;;;21.42;100.00;101752.80;1999087;71;30959;-69
2022/05/17 11:19:53;;;;;;;15.50;14.50;;;;;;;21.72;100.00;101746.05;1960477;72;24147;-69
2022/05/17 11:25:51;;;;;;;17.43;16.23;;;;;;;22.01;100.00;101738.78;2008192;71;30959;-69
2022/05/17 11:31:53;;;;;;;14.53;13.62;;;;;;;22.22;100.00;101721.26;2011857;71;30927;-78
2022/05/17 11:37:52;;;;;;;19.75;18.67;;;;;;;22.04;100.00;101707.80;2015336;71;30982;-70
2022/05/17 11:44:26;;;;;;;13.25;12.40;;;;;;;22.25;100.00;101707.83;1998752;71;31063;-70
2022/05/17 11:50:45;;;;;;;13.60;12.60;;;;;;;22.37;100.00;101681.03;2008351;71;31422;-69
2022/05/17 11:56:57;;;;;;;13.48;12.73;;;;;;;22.42;100.00;101689.30;2006611;71;31297;-79
2022/05/17 12:03:00;;;;;;;13.70;12.80;;;;;;;22.37;100.00;101680.20;2008174;71;30885;-69
2022/05/17 12:09:29;;;;;;;12.20;11.40;;;;;;;22.30;100.00;101680.73;2005856;71;30882;-70
2022/05/17 12:12:25;;;;;;;12.37;11.63;;;;;;;22.87;100.00;101674.45;1964692;72;24598;-78
2022/05/17 12:18:38;;;;;;;12.28;11.57;;;;;;;22.58;100.00;101665.45;1995539;71;30937;-75
2022/05/17 12:21:51;;;;;;;16.57;13.65;;;;;;;23.05;100.00;101668.84;1962861;72;24233;-77
2022/05/17 12:27:45;;;;;;;15.32;13.75;;;;;;;22.95;100.00;101659.36;2011517;71;31004;-77
2022/05/17 12:33:34;;;;;;;13.22;12.23;;;;;;;22.30;100.00;101660.92;1991911;71;31053;-82
2022/05/17 12:45:39;;;;;;;14.70;13.10;;;;;;;22.50;100.00;101654.45;2004279;71;31385;-78
2022/05/17 12:51:33;;;;;;;11.95;11.25;;;;;;;23.20;100.00;101651.74;2004227;71;31405;-78
2022/05/17 12:57:24;;;;;;;14.18;12.88;;;;;;;23.68;100.00;101658.09;2045029;69;30821;-69
2022/05/17 13:03:25;;;;;;;13.28;12.47;;;;;;;22.90;100.00;101656.74;1995285;71;30824;-68
2022/05/17 13:09:17;;;;;;;13.00;12.20;;;;;;;23.67;100.00;101650.17;2011416;71;30917;-70
2022/05/17 13:15:06;;;;;;;12.05;11.28;;;;;;;23.97;100.00;101652.16;2009574;71;30899;-77
2022/05/17 13:20:54;;;;;;;11.70;11.10;;;;;;;23.22;100.00;101641.73;1987912;71;31393;-82
2022/05/17 13:26:45;;;;;;;12.98;12.18;;;;;;;23.50;100.00;101634.80;1998967;71;30885;-83
2022/05/17 13:32:37;;;;;;;12.00;11.20;;;;;;;23.69;100.00;101625.12;2006480;71;31361;-71
2022/05/17 13:38:33;;;;;;;13.03;12.13;;;;;;;23.29;100.00;101617.86;2002803;71;31423;-71
2022/05/17 13:47:54;;;;;;;11.20;10.60;;;;;;;22.97;100.00;101613.09;2005702;71;30935;-77
2022/05/17 13:53:45;;;;;;;12.10;11.30;;;;;;;23.95;100.00;101585.02;2016895;71;30996;-77
2022/05/17 13:59:30;;;;;;;11.57;10.93;;;;;;;24.15;100.00;101584.03;2004020;71;30894;-69
2022/05/17 14:05:23;;;;;;;11.83;11.20;;;;;;;23.82;100.00;101582.79;2002387;71;30936;-77
2022/05/17 14:17:24;;;;;;;11.50;10.90;;;;;;;23.94;100.00;101562.06;2000829;71;30830;-69
2022/05/17 14:23:08;;;;;;;11.33;10.72;;;;;;;24.54;100.00;101551.10;2009442;71;30892;-70
2022/05/17 14:28:52;;;;;;;11.12;10.53;;;;;;;24.29;100.00;101543.89;2011213;71;30904;-69
2022/05/17 14:34:40;;;;;;;16.05;15.00;;;;;;;23.70;100.00;101538.84;2013368;71;30947;-77
2022/05/17 14:40:28;;;;;;;11.40;10.80;;;;;;;23.58;100.00;101538.25;2016875;71;31006;-70
2022/05/17 14:46:15;;;;;;;10.82;10.03;;;;;;;24.09;100.00;101541.43;2004290;70;30923;-77
2022/05/17 14:52:00;;;;;;;11.15;10.58;;;;;;;24.23;100.00;101523.44;1995601;71;31281;-70
2022/05/17 14:57:44;;;;;;;10.58;10.15;;;;;;;24.18;100.00;101508.08;2000246;71;30897;-78
2022/05/17 15:03:33;;;;;;;11.45;10.78;;;;;;;24.26;100.00;101497.15;2010089;71;30820;-75
2022/05/17 15:09:23;;;;;;;11.43;10.82;;;;;;;24.52;100.00;101485.29;2013602;71;30877;-78
2022/05/17 15:15:11;;;;;;;10.88;10.35;;;;;;;23.42;100.00;101493.93;2028695;70;31350;-70
2022/05/17 15:20:59;;;;;;;11.15;10.60;;;;;;;24.28;100.00;101486.27;1994959;71;30899;-70
2022/05/17 15:26:45;;;;;;;11.57;10.90;;;;;;;23.85;100.00;101479.09;2005938;71;31362;-68
2022/05/17 15:32:30;;;;;;;11.80;11.05;;;;;;;24.22;100.00;101471.26;2000954;71;31337;-78
2022/05/17 15:38:19;;;;;;;11.28;10.70;;;;;;;24.26;100.00;101457.39;1991853;71;30891;-78
2022/05/17 15:44:06;;;;;;;11.53;11.03;;;;;;;23.96;100.00;101459.76;2008394;71;30932;-78
2022/05/17 15:55:56;;;;;;;12.05;11.25;;;;;;;24.39;100.00;101447.62;2009678;71;31345;-77
2022/05/17 16:01:46;;;;;;;12.33;11.60;;;;;;;24.34;100.00;101436.55;1998469;71;27958;-75
2022/05/17 16:13:34;;;;;;;12.20;11.50;;;;;;;24.73;100.00;101421.92;2001112;71;30894;-68
2022/05/17 16:19:23;;;;;;;11.73;11.12;;;;;;;24.48;100.00;101414.78;1991612;71;30865;-68
2022/05/17 16:25:10;;;;;;;13.05;12.15;;;;;;;24.08;100.00;101414.91;1998911;71;30901;-68
2022/05/17 16:30:54;;;;;;;11.88;11.28;;;;;;;24.26;100.00;101397.77;2011299;71;30928;-68
2022/05/17 16:36:38;;;;;;;10.45;9.85;;;;;;;24.10;100.00;101388.38;2013340;71;31019;-76
2022/05/17 16:42:24;;;;;;;11.88;11.22;;;;;;;24.26;100.00;101386.41;2000857;71;30806;-77
2022/05/17 16:48:11;;;;;;;11.28;10.58;;;;;;;24.23;100.00;101397.09;2016855;70;31353;-74
2022/05/17 16:53:56;;;;;;;12.80;11.53;;;;;;;24.13;100.00;101382.59;1995433;71;30818;-67
2022/05/17 16:59:43;;;;;;;12.20;11.45;;;;;;;24.14;100.00;101359.50;2002505;71;30956;-69
2022/05/17 17:05:32;;;;;;;12.43;11.73;;;;;;;24.07;100.00;101348.55;1946712;70;31059;-68
2022/05/17 17:11:16;;;;;;;12.15;11.45;;;;;;;24.19;100.00;101361.27;1998924;71;31381;-76
2022/05/17 17:17:03;;;;;;;11.70;11.00;;;;;;;24.13;100.00;101342.26;2018780;71;31003;-74
2022/05/17 17:22:48;;;;;;;11.73;11.12;;;;;;;24.02;100.00;101351.06;2007932;71;30881;-74
2022/05/17 17:28:35;;;;;;;11.25;10.75;;;;;;;24.12;100.00;101340.60;2015086;71;30873;-73
2022/05/17 17:40:22;;;;;;;11.33;10.65;;;;;;;23.94;100.00;101339.29;2005803;70;30872;-76
2022/05/17 17:46:11;;;;;;;11.48;10.95;;;;;;;23.92;100.00;101344.49;2001002;71;30877;-70
2022/05/17 17:51:56;;;;;;;11.55;10.85;;;;;;;23.86;100.00;101340.28;2013460;71;30885;-70
2022/05/17 17:57:40;;;;;;;11.53;10.82;;;;;;;23.70;100.00;101339.44;2000596;71;30877;-76
2022/05/17 18:03:28;;;;;;;11.55;10.95;;;;;;;23.77;100.00;101332.53;2006614;71;30888;-76
2022/05/17 18:09:13;;;;;;;11.30;10.68;;;;;;;23.63;100.00;101347.13;2015314;71;30972;-76
2022/05/17 18:14:59;;;;;;;11.97;11.33;;;;;;;23.68;100.00;101344.63;2009951;71;30867;-74
2022/05/17 18:20:53;;;;;;;11.35;10.50;;;;;;;23.82;100.00;101340.19;1993018;71;31066;-67
2022/05/17 18:26:40;;;;;;;12.35;11.40;;;;;;;23.78;100.00;101349.80;2003940;71;31021;-73
2022/05/17 18:32:30;;;;;;;11.80;11.20;;;;;;;23.51;100.00;101341.52;2000795;71;30910;-75
2022/05/17 18:38:15;;;;;;;11.60;10.95;;;;;;;23.52;100.00;101334.67;2008037;71;30946;-75
2022/05/17 18:43:59;;;;;;;10.72;10.23;;;;;;;23.48;100.00;101338.00;2014964;71;30931;-76
2022/05/17 18:49:45;;;;;;;11.00;10.50;;;;;;;23.44;100.00;101352.08;2013265;71;30992;-72
2022/05/17 18:55:42;;;;;;;10.72;10.10;;;;;;;23.45;100.00;101387.73;2000564;71;31370;-74
2022/05/17 19:01:27;;;;;;;11.15;10.40;;;;;;;23.44;100.00;101410.80;1995514;71;30931;-75
2022/05/17 19:13:33;;;;;;;11.08;10.48;;;;;;;23.42;100.00;101419.62;2013309;71;31002;-73
2022/05/17 19:19:22;;;;;;;11.18;10.55;;;;;;;23.39;100.00;101433.69;2005692;71;30877;-70
2022/05/17 19:25:10;;;;;;;10.88;10.35;;;;;;;23.35;100.00;101455.44;2006444;71;30849;-68
2022/05/17 19:30:55;;;;;;;10.82;10.13;;;;;;;23.25;100.00;101463.83;2009639;71;30948;-69
2022/05/17 19:42:49;;;;;;;11.12;10.53;;;;;;;23.09;100.00;101502.00;1990947;71;30888;-75
2022/05/17 19:48:38;;;;;;;12.37;11.57;;;;;;;22.92;100.00;101520.64;2013304;71;31400;-68
2022/05/17 19:54:26;;;;;;;12.63;11.73;;;;;;;22.43;100.00;101514.59;1999017;71;30892;-74
2022/05/17 20:00:14;;;;;;;22.80;21.55;;;;;;;22.04;100.00;101535.78;2009541;71;30907;-74
2022/05/17 20:05:58;;;;;;;48.45;45.67;;;;;;;21.32;100.00;101544.84;2015105;71;30940;-68
2022/05/17 20:11:43;;;;;;;71.10;66.80;;;;;;;20.35;100.00;101539.59;2009427;71;30930;-71
2022/05/17 20:17:29;;;;;;;78.45;73.45;;;;;;;20.05;100.00;101564.56;1999072;71;30843;-73
2022/05/17 20:23:15;;;;;;;82.93;77.53;;;;;;;19.79;100.00;101565.96;2013307;71;31451;-68
2022/05/17 20:29:02;;;;;;;81.07;75.37;;;;;;;19.70;100.00;101562.30;2006365;71;30972;-73
2022/05/17 20:34:48;;;;;;;77.37;71.47;;;;;;;19.42;100.00;101573.57;2008142;71;30875;-72
2022/05/17 20:40:33;;;;;;;81.87;75.87;;;;;;;19.24;100.00;101560.58;1995535;71;30884;-72
2022/05/17 20:52:21;;;;;;;75.10;69.30;;;;;;;18.92;100.00;101561.19;2013282;71;31041;-66
2022/05/17 20:58:06;;;;;;;75.63;69.93;;;;;;;19.07;100.00;101555.14;2008618;71;30838;-66
2022/05/17 21:03:51;;;;;;;77.57;71.90;;;;;;;19.00;100.00;101553.93;2007917;71;31479;-72
2022/05/17 21:09:37;;;;;;;77.63;71.87;;;;;;;18.77;100.00;101548.95;2018468;71;30953;-67
2022/05/17 21:15:23;;;;;;;79.50;73.87;;;;;;;18.71;100.00;101547.42;1991493;71;30901;-67
2022/05/17 21:21:08;;;;;;;80.53;74.50;;;;;;;18.73;100.00;101550.77;2000713;70;30822;-73
2022/05/17 21:26:55;;;;;;;82.63;76.53;;;;;;;18.61;100.00;101560.38;2006105;71;30938;-75
2022/05/17 21:32:41;;;;;;;82.87;76.97;;;;;;;18.54;100.00;101579.69;2000762;71;30834;-68
2022/05/17 21:38:29;;;;;;;77.20;71.50;;;;;;;18.53;100.00;101592.08;2002753;71;30920;-67
2022/05/17 21:44:15;;;;;;;81.27;75.27;;;;;;;18.52;100.00;101598.86;2004024;71;30926;-67
2022/05/17 21:50:02;;;;;;;82.23;76.30;;;;;;;18.32;100.00;101610.59;2002212;71;30959;-68
2022/05/17 21:55:48;;;;;;;80.10;74.13;;;;;;;18.24;100.00;101608.55;2011719;71;30832;-67
2022/05/17 22:01:32;;;;;;;80.80;75.10;;;;;;;18.09;100.00;101614.81;1998888;71;30806;-73
2022/05/17 22:07:16;;;;;;;79.23;73.53;;;;;;;18.03;100.00;101614.66;2010276;71;31377;-67
2022/05/17 22:19:12;;;;;;;83.40;77.40;;;;;;;18.08;100.00;101637.61;1996056;71;30923;-73
2022/05/17 22:24:57;;;;;;;84.70;78.67;;;;;;;17.91;100.00;101647.28;2009320;71;30988;-74
2022/05/17 22:30:41;;;;;;;87.40;81.40;;;;;;;17.88;100.00;101661.41;2009594;70;30865;-66
2022/05/17 22:36:27;;;;;;;85.13;79.20;;;;;;;17.96;100.00;101658.42;2009604;71;33363;-73
2022/05/17 22:42:13;;;;;;;84.80;78.90;;;;;;;17.76;100.00;101679.36;2004605;71;31402;-67
2022/05/17 22:47:59;;;;;;;94.10;87.93;;;;;;;17.59;100.00;101686.17;2018719;71;31450;-74
2022/05/17 22:53:45;;;;;;;93.00;86.73;;;;;;;17.55;100.00;101691.56;2002819;71;33282;-75
2022/05/17 22:59:31;;;;;;;90.03;83.90;;;;;;;17.28;100.00;101697.17;2016931;71;31431;-73
2022/05/17 23:05:19;;;;;;;88.53;82.23;;;;;;;17.38;100.00;101708.76;2000847;71;33262;-67
2022/05/17 23:11:04;;;;;;;84.50;78.67;;;;;;;17.35;100.00;101711.63;2014925;71;30871;-66
2022/05/17 23:16:50;;;;;;;85.50;79.40;;;;;;;17.20;100.00;101721.16;2009655;71;30949;-73
2022/05/17 23:22:35;;;;;;;80.40;74.67;;;;;;;17.07;100.00;101736.59;2002759;71;30835;-74
2022/05/17 23:28:34;;;;;;;81.23;75.17;;;;;;;16.99;100.00;101744.28;2008416;71;33288;-66
2022/05/17 23:34:19;;;;;;;84.63;78.83;;;;;;;16.80;100.00;101760.59;2009507;71;30921;-67
2022/05/17 23:40:07;;;;;;;78.93;73.13;;;;;;;16.72;100.00;101766.06;2016749;71;30895;-73
2022/05/17 23:45:52;;;;;;;80.97;75.17;;;;;;;16.66;100.00;101777.09;2015174;71;33412;-73
2022/05/17 23:51:37;;;;;;;84.17;78.33;;;;;;;16.48;100.00;101772.27;2000496;71;33428;-74
2022/05/17 23:57:32;;;;;;;84.27;78.60;;;;;;;16.43;100.00;101780.78;1973082;72;30951;-72
